sensor_id;sensor_type;location;lat;lon;timestamp;P1;durP1;ratioP1;P2;durP2;ratioP2
68176;SDS011;56478;50.982;7.032;2023-09-07T00:02:00;6.03;;;5.43;;
68176;SDS011;56478;50.982;7.032;2023-09-07T00:04:25;6.40;;;5.63;;
68176;SDS011;56478;50.982;7.032;2023-09-07T00:06:51;7.97;;;5.60;;
68176;SDS011;56478;50.982;7.032;2023-09-07T00:09:17;8.52;;;5.43;;
68176;SDS011;56478;50.982;7.032;2023-09-07T00:11:47;7.10;;;5.32;;
68176;SDS011;56478;50.982;7.032;2023-09-07T00:14:13;7.90;;;5.82;;
68176;SDS011;56478;50.982;7.032;2023-09-07T00:16:39;7.68;;;5.93;;
68176;SDS011;56478;50.982;7.032;2023-09-07T00:19:04;7.22;;;5.70;;
68176;SDS011;56478;50.982;7.032;2023-09-07T00:21:30;6.05;;;5.25;;
68176;SDS011;56478;50.982;7.032;2023-09-07T00:23:56;8.65;;;5.28;;
68176;SDS011;56478;50.982;7.032;2023-09-07T00:26:22;7.80;;;5.43;;
68176;SDS011;56478;50.982;7.032;2023-09-07T00:28:48;8.70;;;5.60;;
68176;SDS011;56478;50.982;7.032;2023-09-07T00:31:13;6.45;;;5.32;;
68176;SDS011;56478;50.982;7.032;2023-09-07T00:33:39;10.77;;;5.57;;
68176;SDS011;56478;50.982;7.032;2023-09-07T00:36:05;5.82;;;5.30;;
68176;SDS011;56478;50.982;7.032;2023-09-07T00:38:30;7.50;;;5.32;;
68176;SDS011;56478;50.982;7.032;2023-09-07T00:40:56;7.43;;;5.65;;
68176;SDS011;56478;50.982;7.032;2023-09-07T00:43:22;6.60;;;5.25;;
68176;SDS011;56478;50.982;7.032;2023-09-07T00:45:47;7.00;;;5.25;;
68176;SDS011;56478;50.982;7.032;2023-09-07T00:48:14;5.60;;;5.10;;
68176;SDS011;56478;50.982;7.032;2023-09-07T00:50:43;7.20;;;5.47;;
68176;SDS011;56478;50.982;7.032;2023-09-07T00:53:10;5.60;;;5.10;;
68176;SDS011;56478;50.982;7.032;2023-09-07T00:55:36;5.85;;;5.03;;
68176;SDS011;56478;50.982;7.032;2023-09-07T00:58:02;7.68;;;5.40;;
68176;SDS011;56478;50.982;7.032;2023-09-07T01:00:29;7.53;;;5.10;;
68176;SDS011;56478;50.982;7.032;2023-09-07T01:02:55;6.97;;;4.90;;
68176;SDS011;56478;50.982;7.032;2023-09-07T01:05:29;6.30;;;4.88;;
68176;SDS011;56478;50.982;7.032;2023-09-07T01:08:15;7.13;;;5.25;;
68176;SDS011;56478;50.982;7.032;2023-09-07T01:10:54;6.03;;;5.22;;
68176;SDS011;56478;50.982;7.032;2023-09-07T01:13:19;6.25;;;5.13;;
68176;SDS011;56478;50.982;7.032;2023-09-07T01:15:45;7.18;;;5.07;;
68176;SDS011;56478;50.982;7.032;2023-09-07T01:18:11;9.50;;;5.20;;
68176;SDS011;56478;50.982;7.032;2023-09-07T01:20:39;6.32;;;5.00;;
68176;SDS011;56478;50.982;7.032;2023-09-07T01:23:07;6.88;;;5.28;;
68176;SDS011;56478;50.982;7.032;2023-09-07T01:25:33;6.25;;;4.95;;
68176;SDS011;56478;50.982;7.032;2023-09-07T01:27:59;5.50;;;5.00;;
68176;SDS011;56478;50.982;7.032;2023-09-07T01:30:27;5.53;;;5.03;;
68176;SDS011;56478;50.982;7.032;2023-09-07T01:32:53;6.10;;;5.38;;
68176;SDS011;56478;50.982;7.032;2023-09-07T01:35:19;5.32;;;4.88;;
68176;SDS011;56478;50.982;7.032;2023-09-07T01:37:47;7.00;;;5.32;;
68176;SDS011;56478;50.982;7.032;2023-09-07T01:40:13;6.47;;;5.22;;
68176;SDS011;56478;50.982;7.032;2023-09-07T01:42:39;5.60;;;4.82;;
68176;SDS011;56478;50.982;7.032;2023-09-07T01:45:05;6.60;;;4.80;;
68176;SDS011;56478;50.982;7.032;2023-09-07T01:47:31;9.75;;;5.18;;
68176;SDS011;56478;50.982;7.032;2023-09-07T01:49:57;5.00;;;4.60;;
68176;SDS011;56478;50.982;7.032;2023-09-07T01:52:22;6.18;;;5.07;;
68176;SDS011;56478;50.982;7.032;2023-09-07T01:54:48;7.20;;;4.90;;
68176;SDS011;56478;50.982;7.032;2023-09-07T01:57:13;5.18;;;4.72;;
68176;SDS011;56478;50.982;7.032;2023-09-07T01:59:39;5.47;;;4.90;;
68176;SDS011;56478;50.982;7.032;2023-09-07T02:02:05;5.80;;;5.20;;
68176;SDS011;56478;50.982;7.032;2023-09-07T02:04:30;5.28;;;4.80;;
68176;SDS011;56478;50.982;7.032;2023-09-07T02:06:56;9.13;;;5.22;;
68176;SDS011;56478;50.982;7.032;2023-09-07T02:09:21;6.07;;;4.80;;
68176;SDS011;56478;50.982;7.032;2023-09-07T02:11:47;5.60;;;5.10;;
68176;SDS011;56478;50.982;7.032;2023-09-07T02:14:13;5.30;;;4.80;;
68176;SDS011;56478;50.982;7.032;2023-09-07T02:16:38;5.65;;;5.13;;
68176;SDS011;56478;50.982;7.032;2023-09-07T02:19:05;7.65;;;5.03;;
68176;SDS011;56478;50.982;7.032;2023-09-07T02:21:32;5.78;;;4.90;;
68176;SDS011;56478;50.982;7.032;2023-09-07T02:23:57;5.65;;;4.75;;
68176;SDS011;56478;50.982;7.032;2023-09-07T02:26:23;5.50;;;4.82;;
68176;SDS011;56478;50.982;7.032;2023-09-07T02:28:49;6.25;;;5.30;;
68176;SDS011;56478;50.982;7.032;2023-09-07T02:31:15;6.13;;;4.75;;
68176;SDS011;56478;50.982;7.032;2023-09-07T02:33:40;5.07;;;4.57;;
68176;SDS011;56478;50.982;7.032;2023-09-07T02:36:06;5.78;;;4.90;;
68176;SDS011;56478;50.982;7.032;2023-09-07T02:38:31;5.78;;;5.18;;
68176;SDS011;56478;50.982;7.032;2023-09-07T02:40:57;5.55;;;4.90;;
68176;SDS011;56478;50.982;7.032;2023-09-07T02:43:23;5.05;;;4.60;;
68176;SDS011;56478;50.982;7.032;2023-09-07T02:45:49;6.80;;;4.88;;
68176;SDS011;56478;50.982;7.032;2023-09-07T02:48:15;7.40;;;4.93;;
68176;SDS011;56478;50.982;7.032;2023-09-07T02:50:41;6.78;;;5.28;;
68176;SDS011;56478;50.982;7.032;2023-09-07T02:53:07;6.55;;;5.07;;
68176;SDS011;56478;50.982;7.032;2023-09-07T02:55:33;5.60;;;5.10;;
68176;SDS011;56478;50.982;7.032;2023-09-07T02:58:02;5.40;;;4.90;;
68176;SDS011;56478;50.982;7.032;2023-09-07T03:00:28;7.20;;;5.35;;
68176;SDS011;56478;50.982;7.032;2023-09-07T03:02:53;8.82;;;4.82;;
68176;SDS011;56478;50.982;7.032;2023-09-07T03:05:19;6.05;;;4.90;;
68176;SDS011;56478;50.982;7.032;2023-09-07T03:07:45;5.40;;;4.90;;
68176;SDS011;56478;50.982;7.032;2023-09-07T03:10:15;5.45;;;4.80;;
68176;SDS011;56478;50.982;7.032;2023-09-07T03:12:40;6.20;;;4.80;;
68176;SDS011;56478;50.982;7.032;2023-09-07T03:15:06;5.57;;;4.90;;
68176;SDS011;56478;50.982;7.032;2023-09-07T03:17:32;11.25;;;5.07;;
68176;SDS011;56478;50.982;7.032;2023-09-07T03:19:58;6.95;;;5.32;;
68176;SDS011;56478;50.982;7.032;2023-09-07T03:22:24;7.38;;;4.93;;
68176;SDS011;56478;50.982;7.032;2023-09-07T03:24:50;10.45;;;5.13;;
68176;SDS011;56478;50.982;7.032;2023-09-07T03:27:16;7.05;;;5.28;;
68176;SDS011;56478;50.982;7.032;2023-09-07T03:29:42;5.38;;;4.88;;
68176;SDS011;56478;50.982;7.032;2023-09-07T03:32:09;6.90;;;4.70;;
68176;SDS011;56478;50.982;7.032;2023-09-07T03:34:35;6.28;;;4.88;;
68176;SDS011;56478;50.982;7.032;2023-09-07T03:37:01;6.15;;;4.63;;
68176;SDS011;56478;50.982;7.032;2023-09-07T03:39:27;5.57;;;5.00;;
68176;SDS011;56478;50.982;7.032;2023-09-07T03:41:53;7.95;;;5.07;;
68176;SDS011;56478;50.982;7.032;2023-09-07T03:44:19;6.68;;;4.85;;
68176;SDS011;56478;50.982;7.032;2023-09-07T03:46:45;5.63;;;4.93;;
68176;SDS011;56478;50.982;7.032;2023-09-07T03:49:10;6.47;;;5.22;;
68176;SDS011;56478;50.982;7.032;2023-09-07T03:51:36;5.45;;;4.72;;
68176;SDS011;56478;50.982;7.032;2023-09-07T03:54:01;6.85;;;4.80;;
68176;SDS011;56478;50.982;7.032;2023-09-07T03:56:27;5.30;;;4.80;;
68176;SDS011;56478;50.982;7.032;2023-09-07T03:58:53;5.82;;;4.70;;
68176;SDS011;56478;50.982;7.032;2023-09-07T04:01:18;5.70;;;5.15;;
68176;SDS011;56478;50.982;7.032;2023-09-07T04:03:44;5.60;;;5.05;;
68176;SDS011;56478;50.982;7.032;2023-09-07T04:06:09;5.63;;;5.00;;
68176;SDS011;56478;50.982;7.032;2023-09-07T04:08:35;5.85;;;4.90;;
68176;SDS011;56478;50.982;7.032;2023-09-07T04:11:04;6.78;;;4.90;;
68176;SDS011;56478;50.982;7.032;2023-09-07T04:13:31;6.40;;;4.90;;
68176;SDS011;56478;50.982;7.032;2023-09-07T04:15:57;5.80;;;5.28;;
68176;SDS011;56478;50.982;7.032;2023-09-07T04:18:23;8.18;;;5.43;;
68176;SDS011;56478;50.982;7.032;2023-09-07T04:20:48;5.75;;;4.90;;
68176;SDS011;56478;50.982;7.032;2023-09-07T04:23:14;5.65;;;5.13;;
68176;SDS011;56478;50.982;7.032;2023-09-07T04:25:40;5.38;;;4.97;;
68176;SDS011;56478;50.982;7.032;2023-09-07T04:28:06;5.72;;;5.15;;
68176;SDS011;56478;50.982;7.032;2023-09-07T04:30:32;5.88;;;5.00;;
68176;SDS011;56478;50.982;7.032;2023-09-07T04:33:02;5.63;;;5.07;;
68176;SDS011;56478;50.982;7.032;2023-09-07T04:35:28;5.60;;;4.95;;
68176;SDS011;56478;50.982;7.032;2023-09-07T04:37:57;6.10;;;5.18;;
68176;SDS011;56478;50.982;7.032;2023-09-07T04:40:24;10.82;;;4.93;;
68176;SDS011;56478;50.982;7.032;2023-09-07T04:42:50;6.57;;;5.30;;
68176;SDS011;56478;50.982;7.032;2023-09-07T04:45:16;5.57;;;5.03;;
68176;SDS011;56478;50.982;7.032;2023-09-07T04:47:42;5.95;;;4.88;;
68176;SDS011;56478;50.982;7.032;2023-09-07T04:50:08;7.22;;;4.88;;
68176;SDS011;56478;50.982;7.032;2023-09-07T04:52:34;7.22;;;5.10;;
68176;SDS011;56478;50.982;7.032;2023-09-07T04:55:00;6.95;;;5.35;;
68176;SDS011;56478;50.982;7.032;2023-09-07T04:57:26;5.95;;;4.68;;
68176;SDS011;56478;50.982;7.032;2023-09-07T04:59:52;7.78;;;4.90;;
68176;SDS011;56478;50.982;7.032;2023-09-07T05:02:17;6.18;;;4.80;;
68176;SDS011;56478;50.982;7.032;2023-09-07T05:04:43;5.53;;;4.97;;
68176;SDS011;56478;50.982;7.032;2023-09-07T05:07:09;5.78;;;5.10;;
68176;SDS011;56478;50.982;7.032;2023-09-07T05:09:35;5.35;;;4.75;;
68176;SDS011;56478;50.982;7.032;2023-09-07T05:12:01;6.40;;;4.97;;
68176;SDS011;56478;50.982;7.032;2023-09-07T05:14:26;5.57;;;5.00;;
68176;SDS011;56478;50.982;7.032;2023-09-07T05:16:52;5.13;;;4.72;;
68176;SDS011;56478;50.982;7.032;2023-09-07T05:19:18;6.55;;;5.13;;
68176;SDS011;56478;50.982;7.032;2023-09-07T05:21:43;6.63;;;4.78;;
68176;SDS011;56478;50.982;7.032;2023-09-07T05:24:12;5.43;;;4.93;;
68176;SDS011;56478;50.982;7.032;2023-09-07T05:26:40;5.85;;;5.25;;
68176;SDS011;56478;50.982;7.032;2023-09-07T05:29:06;5.45;;;4.85;;
68176;SDS011;56478;50.982;7.032;2023-09-07T05:31:32;6.50;;;4.82;;
68176;SDS011;56478;50.982;7.032;2023-09-07T05:33:57;5.45;;;4.95;;
68176;SDS011;56478;50.982;7.032;2023-09-07T05:36:23;6.07;;;5.35;;
68176;SDS011;56478;50.982;7.032;2023-09-07T05:38:49;8.02;;;4.90;;
68176;SDS011;56478;50.982;7.032;2023-09-07T05:41:14;6.70;;;5.10;;
68176;SDS011;56478;50.982;7.032;2023-09-07T05:43:40;6.22;;;5.10;;
68176;SDS011;56478;50.982;7.032;2023-09-07T05:46:08;5.55;;;5.05;;
68176;SDS011;56478;50.982;7.032;2023-09-07T05:48:37;6.05;;;5.22;;
68176;SDS011;56478;50.982;7.032;2023-09-07T05:51:02;6.82;;;5.13;;
68176;SDS011;56478;50.982;7.032;2023-09-07T05:53:28;9.52;;;5.43;;
68176;SDS011;56478;50.982;7.032;2023-09-07T05:55:54;6.70;;;5.53;;
68176;SDS011;56478;50.982;7.032;2023-09-07T05:58:19;8.40;;;5.50;;
68176;SDS011;56478;50.982;7.032;2023-09-07T06:00:45;8.20;;;5.93;;
68176;SDS011;56478;50.982;7.032;2023-09-07T06:03:11;6.80;;;5.53;;
68176;SDS011;56478;50.982;7.032;2023-09-07T06:05:37;8.77;;;5.60;;
68176;SDS011;56478;50.982;7.032;2023-09-07T06:08:04;11.82;;;6.18;;
68176;SDS011;56478;50.982;7.032;2023-09-07T06:10:31;13.90;;;5.47;;
68176;SDS011;56478;50.982;7.032;2023-09-07T06:12:57;10.70;;;5.97;;
68176;SDS011;56478;50.982;7.032;2023-09-07T06:15:23;9.43;;;5.85;;
68176;SDS011;56478;50.982;7.032;2023-09-07T06:17:48;13.30;;;6.05;;
68176;SDS011;56478;50.982;7.032;2023-09-07T06:20:15;6.63;;;6.03;;
68176;SDS011;56478;50.982;7.032;2023-09-07T06:22:40;8.48;;;5.80;;
68176;SDS011;56478;50.982;7.032;2023-09-07T06:25:06;7.32;;;5.53;;
68176;SDS011;56478;50.982;7.032;2023-09-07T06:27:32;5.78;;;5.07;;
68176;SDS011;56478;50.982;7.032;2023-09-07T06:29:58;6.45;;;5.22;;
68176;SDS011;56478;50.982;7.032;2023-09-07T06:32:23;9.38;;;5.13;;
68176;SDS011;56478;50.982;7.032;2023-09-07T06:34:49;5.85;;;5.28;;
68176;SDS011;56478;50.982;7.032;2023-09-07T06:37:14;8.18;;;5.20;;
68176;SDS011;56478;50.982;7.032;2023-09-07T06:39:40;6.40;;;5.20;;
68176;SDS011;56478;50.982;7.032;2023-09-07T06:42:08;6.90;;;5.25;;
68176;SDS011;56478;50.982;7.032;2023-09-07T06:44:35;5.93;;;5.32;;
68176;SDS011;56478;50.982;7.032;2023-09-07T06:47:01;6.43;;;4.97;;
68176;SDS011;56478;50.982;7.032;2023-09-07T06:49:27;11.80;;;5.13;;
68176;SDS011;56478;50.982;7.032;2023-09-07T06:51:54;10.45;;;5.10;;
68176;SDS011;56478;50.982;7.032;2023-09-07T06:54:23;9.02;;;5.28;;
68176;SDS011;56478;50.982;7.032;2023-09-07T06:56:48;6.65;;;4.97;;
68176;SDS011;56478;50.982;7.032;2023-09-07T06:59:14;5.65;;;5.05;;
68176;SDS011;56478;50.982;7.032;2023-09-07T07:01:39;11.18;;;5.35;;
68176;SDS011;56478;50.982;7.032;2023-09-07T07:04:05;7.30;;;5.05;;
68176;SDS011;56478;50.982;7.032;2023-09-07T07:06:31;5.20;;;4.32;;
68176;SDS011;56478;50.982;7.032;2023-09-07T07:08:57;5.18;;;4.65;;
68176;SDS011;56478;50.982;7.032;2023-09-07T07:11:22;6.20;;;4.80;;
68176;SDS011;56478;50.982;7.032;2023-09-07T07:13:48;9.68;;;4.90;;
68176;SDS011;56478;50.982;7.032;2023-09-07T07:16:13;5.70;;;4.63;;
68176;SDS011;56478;50.982;7.032;2023-09-07T07:18:39;7.72;;;4.32;;
68176;SDS011;56478;50.982;7.032;2023-09-07T07:21:05;4.95;;;4.10;;
68176;SDS011;56478;50.982;7.032;2023-09-07T07:23:31;5.57;;;4.40;;
68176;SDS011;56478;50.982;7.032;2023-09-07T07:25:56;8.27;;;4.53;;
68176;SDS011;56478;50.982;7.032;2023-09-07T07:28:22;5.43;;;4.45;;
68176;SDS011;56478;50.982;7.032;2023-09-07T07:30:47;6.95;;;4.20;;
68176;SDS011;56478;50.982;7.032;2023-09-07T07:33:13;7.22;;;4.15;;
68176;SDS011;56478;50.982;7.032;2023-09-07T07:35:38;6.03;;;4.30;;
68176;SDS011;56478;50.982;7.032;2023-09-07T07:38:04;6.88;;;4.03;;
68176;SDS011;56478;50.982;7.032;2023-09-07T07:42:58;5.13;;;3.95;;
68176;SDS011;56478;50.982;7.032;2023-09-07T07:45:23;6.20;;;3.80;;
68176;SDS011;56478;50.982;7.032;2023-09-07T07:47:49;6.85;;;3.42;;
68176;SDS011;56478;50.982;7.032;2023-09-07T07:50:15;7.15;;;3.75;;
68176;SDS011;56478;50.982;7.032;2023-09-07T07:52:41;5.80;;;3.83;;
68176;SDS011;56478;50.982;7.032;2023-09-07T07:55:07;4.45;;;3.83;;
68176;SDS011;56478;50.982;7.032;2023-09-07T07:57:33;4.90;;;3.63;;
68176;SDS011;56478;50.982;7.032;2023-09-07T07:59:59;5.35;;;3.70;;
68176;SDS011;56478;50.982;7.032;2023-09-07T08:02:24;10.68;;;3.60;;
68176;SDS011;56478;50.982;7.032;2023-09-07T08:04:50;10.63;;;3.63;;
68176;SDS011;56478;50.982;7.032;2023-09-07T08:07:16;4.22;;;3.40;;
68176;SDS011;56478;50.982;7.032;2023-09-07T08:09:41;6.80;;;3.17;;
68176;SDS011;56478;50.982;7.032;2023-09-07T08:12:07;4.50;;;3.50;;
68176;SDS011;56478;50.982;7.032;2023-09-07T08:14:32;9.02;;;3.38;;
68176;SDS011;56478;50.982;7.032;2023-09-07T08:16:58;3.50;;;3.20;;
68176;SDS011;56478;50.982;7.032;2023-09-07T08:19:24;4.20;;;3.25;;
68176;SDS011;56478;50.982;7.032;2023-09-07T08:21:50;3.70;;;3.33;;
68176;SDS011;56478;50.982;7.032;2023-09-07T08:24:16;4.63;;;3.20;;
68176;SDS011;56478;50.982;7.032;2023-09-07T08:26:43;3.50;;;3.20;;
68176;SDS011;56478;50.982;7.032;2023-09-07T08:29:08;4.38;;;3.40;;
68176;SDS011;56478;50.982;7.032;2023-09-07T08:34:04;3.85;;;3.28;;
68176;SDS011;56478;50.982;7.032;2023-09-07T08:36:32;3.80;;;3.20;;
68176;SDS011;56478;50.982;7.032;2023-09-07T08:39:01;3.47;;;3.20;;
68176;SDS011;56478;50.982;7.032;2023-09-07T08:41:39;4.35;;;3.40;;
68176;SDS011;56478;50.982;7.032;2023-09-07T08:44:20;3.45;;;3.22;;
68176;SDS011;56478;50.982;7.032;2023-09-07T08:46:49;4.50;;;3.10;;
68176;SDS011;56478;50.982;7.032;2023-09-07T08:49:15;5.45;;;3.22;;
68176;SDS011;56478;50.982;7.032;2023-09-07T08:51:44;5.55;;;3.20;;
68176;SDS011;56478;50.982;7.032;2023-09-07T08:54:10;4.65;;;3.28;;
68176;SDS011;56478;50.982;7.032;2023-09-07T08:56:37;5.80;;;3.10;;
68176;SDS011;56478;50.982;7.032;2023-09-07T08:59:03;3.83;;;3.08;;
68176;SDS011;56478;50.982;7.032;2023-09-07T09:01:29;3.40;;;3.17;;
68176;SDS011;56478;50.982;7.032;2023-09-07T09:03:57;3.38;;;3.13;;
68176;SDS011;56478;50.982;7.032;2023-09-07T09:06:22;3.33;;;3.03;;
68176;SDS011;56478;50.982;7.032;2023-09-07T09:08:49;3.40;;;3.10;;
68176;SDS011;56478;50.982;7.032;2023-09-07T09:11:19;3.50;;;3.20;;
68176;SDS011;56478;50.982;7.032;2023-09-07T09:13:46;4.43;;;3.40;;
68176;SDS011;56478;50.982;7.032;2023-09-07T09:16:12;4.13;;;3.20;;
68176;SDS011;56478;50.982;7.032;2023-09-07T09:18:48;3.60;;;3.30;;
68176;SDS011;56478;50.982;7.032;2023-09-07T09:21:14;3.42;;;3.13;;
68176;SDS011;56478;50.982;7.032;2023-09-07T09:23:41;4.57;;;2.93;;
68176;SDS011;56478;50.982;7.032;2023-09-07T09:26:06;3.42;;;3.13;;
68176;SDS011;56478;50.982;7.032;2023-09-07T09:28:32;5.63;;;3.30;;
68176;SDS011;56478;50.982;7.032;2023-09-07T09:30:59;3.63;;;3.33;;
68176;SDS011;56478;50.982;7.032;2023-09-07T09:33:31;3.13;;;2.90;;
68176;SDS011;56478;50.982;7.032;2023-09-07T09:35:58;3.22;;;2.92;;
68176;SDS011;56478;50.982;7.032;2023-09-07T09:38:24;3.05;;;2.85;;
68176;SDS011;56478;50.982;7.032;2023-09-07T09:40:50;3.20;;;2.90;;
68176;SDS011;56478;50.982;7.032;2023-09-07T09:43:19;3.53;;;3.22;;
68176;SDS011;56478;50.982;7.032;2023-09-07T09:45:45;5.78;;;3.10;;
68176;SDS011;56478;50.982;7.032;2023-09-07T09:48:11;3.53;;;3.22;;
68176;SDS011;56478;50.982;7.032;2023-09-07T09:50:38;3.38;;;3.08;;
68176;SDS011;56478;50.982;7.032;2023-09-07T09:53:05;4.07;;;3.05;;
68176;SDS011;56478;50.982;7.032;2023-09-07T09:55:32;3.47;;;3.03;;
68176;SDS011;56478;50.982;7.032;2023-09-07T09:57:59;4.40;;;3.05;;
68176;SDS011;56478;50.982;7.032;2023-09-07T10:00:25;7.50;;;3.20;;
68176;SDS011;56478;50.982;7.032;2023-09-07T10:05:23;3.13;;;2.92;;
68176;SDS011;56478;50.982;7.032;2023-09-07T10:07:49;3.55;;;3.10;;
68176;SDS011;56478;50.982;7.032;2023-09-07T10:10:15;4.00;;;3.00;;
68176;SDS011;56478;50.982;7.032;2023-09-07T10:12:43;3.67;;;3.17;;
68176;SDS011;56478;50.982;7.032;2023-09-07T10:20:59;4.38;;;2.83;;
68176;SDS011;56478;50.982;7.032;2023-09-07T10:23:40;3.78;;;3.30;;
68176;SDS011;56478;50.982;7.032;2023-09-07T10:26:25;3.47;;;3.15;;
68176;SDS011;56478;50.982;7.032;2023-09-07T10:29:00;3.40;;;3.20;;
68176;SDS011;56478;50.982;7.032;2023-09-07T10:31:28;3.30;;;3.00;;
68176;SDS011;56478;50.982;7.032;2023-09-07T10:33:55;5.07;;;3.10;;
68176;SDS011;56478;50.982;7.032;2023-09-07T10:36:25;4.32;;;2.92;;
68176;SDS011;56478;50.982;7.032;2023-09-07T10:38:51;3.58;;;3.13;;
68176;SDS011;56478;50.982;7.032;2023-09-07T10:41:20;3.38;;;3.13;;
68176;SDS011;56478;50.982;7.032;2023-09-07T10:43:55;3.20;;;3.00;;
68176;SDS011;56478;50.982;7.032;2023-09-07T10:46:22;3.30;;;3.00;;
68176;SDS011;56478;50.982;7.032;2023-09-07T10:51:20;3.20;;;3.00;;
68176;SDS011;56478;50.982;7.032;2023-09-07T10:53:46;4.97;;;3.40;;
68176;SDS011;56478;50.982;7.032;2023-09-07T10:56:11;3.10;;;2.90;;
68176;SDS011;56478;50.982;7.032;2023-09-07T10:58:37;3.53;;;3.15;;
68176;SDS011;56478;50.982;7.032;2023-09-07T11:03:30;3.85;;;3.10;;
68176;SDS011;56478;50.982;7.032;2023-09-07T11:06:00;5.82;;;3.40;;
68176;SDS011;56478;50.982;7.032;2023-09-07T11:08:32;3.42;;;3.13;;
68176;SDS011;56478;50.982;7.032;2023-09-07T11:11:03;3.40;;;3.10;;
68176;SDS011;56478;50.982;7.032;2023-09-07T11:13:29;3.10;;;2.80;;
68176;SDS011;56478;50.982;7.032;2023-09-07T11:15:56;3.40;;;3.20;;
68176;SDS011;56478;50.982;7.032;2023-09-07T11:18:22;3.40;;;3.05;;
68176;SDS011;56478;50.982;7.032;2023-09-07T11:20:49;7.57;;;3.47;;
68176;SDS011;56478;50.982;7.032;2023-09-07T11:23:19;4.63;;;3.35;;
68176;SDS011;56478;50.982;7.032;2023-09-07T11:25:46;4.30;;;3.10;;
68176;SDS011;56478;50.982;7.032;2023-09-07T11:28:14;3.78;;;3.20;;
68176;SDS011;56478;50.982;7.032;2023-09-07T11:33:20;3.00;;;2.80;;
68176;SDS011;56478;50.982;7.032;2023-09-07T11:35:46;3.30;;;3.10;;
68176;SDS011;56478;50.982;7.032;2023-09-07T11:38:12;4.63;;;3.25;;
68176;SDS011;56478;50.982;7.032;2023-09-07T11:40:39;4.88;;;3.17;;
68176;SDS011;56478;50.982;7.032;2023-09-07T11:43:09;3.70;;;3.40;;
68176;SDS011;56478;50.982;7.032;2023-09-07T11:45:42;3.80;;;3.40;;
68176;SDS011;56478;50.982;7.032;2023-09-07T11:48:08;3.42;;;3.13;;
68176;SDS011;56478;50.982;7.032;2023-09-07T11:50:34;4.80;;;3.30;;
68176;SDS011;56478;50.982;7.032;2023-09-07T11:53:01;3.78;;;3.33;;
68176;SDS011;56478;50.982;7.032;2023-09-07T11:55:26;3.53;;;3.22;;
68176;SDS011;56478;50.982;7.032;2023-09-07T11:57:52;3.85;;;3.30;;
68176;SDS011;56478;50.982;7.032;2023-09-07T12:00:18;3.70;;;3.20;;
68176;SDS011;56478;50.982;7.032;2023-09-07T12:02:44;4.00;;;3.60;;
68176;SDS011;56478;50.982;7.032;2023-09-07T12:05:10;3.50;;;3.20;;
68176;SDS011;56478;50.982;7.032;2023-09-07T12:07:39;4.35;;;3.13;;
68176;SDS011;56478;50.982;7.032;2023-09-07T12:10:05;4.63;;;3.20;;
68176;SDS011;56478;50.982;7.032;2023-09-07T12:12:35;4.32;;;3.22;;
68176;SDS011;56478;50.982;7.032;2023-09-07T12:15:01;3.50;;;3.20;;
68176;SDS011;56478;50.982;7.032;2023-09-07T12:17:33;3.40;;;3.10;;
68176;SDS011;56478;50.982;7.032;2023-09-07T12:19:59;4.20;;;3.28;;
68176;SDS011;56478;50.982;7.032;2023-09-07T12:22:25;3.67;;;3.38;;
68176;SDS011;56478;50.982;7.032;2023-09-07T12:24:51;3.40;;;3.10;;
68176;SDS011;56478;50.982;7.032;2023-09-07T12:27:17;7.10;;;3.13;;
68176;SDS011;56478;50.982;7.032;2023-09-07T12:29:43;5.25;;;3.33;;
68176;SDS011;56478;50.982;7.032;2023-09-07T12:32:09;6.53;;;3.33;;
68176;SDS011;56478;50.982;7.032;2023-09-07T12:34:34;3.92;;;3.38;;
68176;SDS011;56478;50.982;7.032;2023-09-07T12:37:01;3.88;;;3.50;;
68176;SDS011;56478;50.982;7.032;2023-09-07T12:39:26;4.65;;;3.40;;
68176;SDS011;56478;50.982;7.032;2023-09-07T12:41:52;3.63;;;3.30;;
68176;SDS011;56478;50.982;7.032;2023-09-07T12:44:17;3.47;;;3.10;;
68176;SDS011;56478;50.982;7.032;2023-09-07T12:46:43;5.70;;;3.35;;
68176;SDS011;56478;50.982;7.032;2023-09-07T12:49:09;6.70;;;3.50;;
68176;SDS011;56478;50.982;7.032;2023-09-07T12:51:35;10.48;;;3.28;;
68176;SDS011;56478;50.982;7.032;2023-09-07T12:54:00;6.13;;;3.78;;
68176;SDS011;56478;50.982;7.032;2023-09-07T12:56:26;7.20;;;3.47;;
68176;SDS011;56478;50.982;7.032;2023-09-07T12:58:51;5.40;;;3.50;;
68176;SDS011;56478;50.982;7.032;2023-09-07T13:01:17;4.47;;;3.33;;
68176;SDS011;56478;50.982;7.032;2023-09-07T13:03:43;3.80;;;3.47;;
68176;SDS011;56478;50.982;7.032;2023-09-07T13:06:09;3.80;;;3.40;;
68176;SDS011;56478;50.982;7.032;2023-09-07T13:08:34;5.00;;;3.38;;
68176;SDS011;56478;50.982;7.032;2023-09-07T13:11:00;3.50;;;3.20;;
68176;SDS011;56478;50.982;7.032;2023-09-07T13:13:26;4.13;;;3.50;;
68176;SDS011;56478;50.982;7.032;2023-09-07T13:15:57;4.30;;;3.30;;
68176;SDS011;56478;50.982;7.032;2023-09-07T13:18:22;5.53;;;3.50;;
68176;SDS011;56478;50.982;7.032;2023-09-07T13:20:48;5.97;;;3.22;;
68176;SDS011;56478;50.982;7.032;2023-09-07T13:23:15;5.22;;;3.40;;
68176;SDS011;56478;50.982;7.032;2023-09-07T13:25:41;5.00;;;3.40;;
68176;SDS011;56478;50.982;7.032;2023-09-07T13:28:07;3.60;;;3.05;;
68176;SDS011;56478;50.982;7.032;2023-09-07T13:30:33;3.90;;;3.60;;
68176;SDS011;56478;50.982;7.032;2023-09-07T13:32:58;4.47;;;4.07;;
68176;SDS011;56478;50.982;7.032;2023-09-07T13:35:25;3.90;;;3.60;;
68176;SDS011;56478;50.982;7.032;2023-09-07T13:37:51;3.67;;;3.38;;
68176;SDS011;56478;50.982;7.032;2023-09-07T13:40:17;5.40;;;3.42;;
68176;SDS011;56478;50.982;7.032;2023-09-07T13:42:45;4.20;;;3.60;;
68176;SDS011;56478;50.982;7.032;2023-09-07T13:45:13;6.53;;;3.60;;
68176;SDS011;56478;50.982;7.032;2023-09-07T13:47:39;3.47;;;3.17;;
68176;SDS011;56478;50.982;7.032;2023-09-07T13:50:05;3.92;;;3.40;;
68176;SDS011;56478;50.982;7.032;2023-09-07T13:52:32;3.45;;;3.10;;
68176;SDS011;56478;50.982;7.032;2023-09-07T13:54:58;5.50;;;3.40;;
68176;SDS011;56478;50.982;7.032;2023-09-07T13:57:24;4.50;;;3.20;;
68176;SDS011;56478;50.982;7.032;2023-09-07T13:59:51;3.93;;;3.20;;
68176;SDS011;56478;50.982;7.032;2023-09-07T14:02:18;3.85;;;3.47;;
68176;SDS011;56478;50.982;7.032;2023-09-07T14:04:44;5.07;;;3.58;;
68176;SDS011;56478;50.982;7.032;2023-09-07T14:07:09;3.85;;;3.58;;
68176;SDS011;56478;50.982;7.032;2023-09-07T14:09:35;4.38;;;3.47;;
68176;SDS011;56478;50.982;7.032;2023-09-07T14:12:01;6.97;;;3.75;;
68176;SDS011;56478;50.982;7.032;2023-09-07T14:14:28;3.42;;;3.22;;
68176;SDS011;56478;50.982;7.032;2023-09-07T14:16:53;3.60;;;3.30;;
68176;SDS011;56478;50.982;7.032;2023-09-07T14:19:22;3.80;;;3.50;;
68176;SDS011;56478;50.982;7.032;2023-09-07T14:21:47;3.53;;;3.22;;
68176;SDS011;56478;50.982;7.032;2023-09-07T14:24:13;3.70;;;3.40;;
68176;SDS011;56478;50.982;7.032;2023-09-07T14:26:39;3.88;;;3.40;;
68176;SDS011;56478;50.982;7.032;2023-09-07T14:29:05;3.55;;;3.25;;
68176;SDS011;56478;50.982;7.032;2023-09-07T14:31:30;3.80;;;3.40;;
68176;SDS011;56478;50.982;7.032;2023-09-07T14:33:56;3.85;;;3.42;;
68176;SDS011;56478;50.982;7.032;2023-09-07T14:36:22;4.35;;;3.40;;
68176;SDS011;56478;50.982;7.032;2023-09-07T14:38:48;6.00;;;3.42;;
68176;SDS011;56478;50.982;7.032;2023-09-07T14:41:13;3.97;;;3.47;;
68176;SDS011;56478;50.982;7.032;2023-09-07T14:43:47;3.50;;;3.20;;
68176;SDS011;56478;50.982;7.032;2023-09-07T14:46:13;3.67;;;3.20;;
68176;SDS011;56478;50.982;7.032;2023-09-07T14:48:40;3.80;;;3.50;;
68176;SDS011;56478;50.982;7.032;2023-09-07T14:51:07;3.67;;;3.47;;
68176;SDS011;56478;50.982;7.032;2023-09-07T14:53:34;3.53;;;3.15;;
68176;SDS011;56478;50.982;7.032;2023-09-07T14:55:59;3.53;;;3.28;;
68176;SDS011;56478;50.982;7.032;2023-09-07T14:58:26;4.78;;;3.22;;
68176;SDS011;56478;50.982;7.032;2023-09-07T15:00:52;3.55;;;3.25;;
68176;SDS011;56478;50.982;7.032;2023-09-07T15:03:18;3.97;;;3.30;;
68176;SDS011;56478;50.982;7.032;2023-09-07T15:05:44;4.45;;;3.25;;